createdAt,value
2022-12-20T00:01:35.291Z,0.10
2022-12-20T00:04:05.876Z,0.10
2022-12-20T00:06:36.267Z,0.10
2022-12-20T00:09:07.103Z,0.10
2022-12-20T00:11:34.986Z,0.10
2022-12-20T00:14:02.396Z,0.10
2022-12-20T00:16:29.897Z,0.10
2022-12-20T00:19:01.392Z,0.10
2022-12-20T00:21:29.795Z,0.10
2022-12-20T00:23:57.475Z,0.10
2022-12-20T00:26:28.259Z,0.10
2022-12-20T00:28:55.749Z,0.10
2022-12-20T00:31:25.520Z,0.10
2022-12-20T00:33:54.977Z,0.10
2022-12-20T00:36:24.750Z,0.10
2022-12-20T00:38:54.800Z,0.10
2022-12-20T00:41:26.130Z,0.10
2022-12-20T00:43:54.646Z,0.10
2022-12-20T00:46:23.590Z,0.10
2022-12-20T00:48:51.965Z,0.10
2022-12-20T00:51:25.335Z,0.10
2022-12-20T00:53:56.212Z,0.10
2022-12-20T00:56:23.728Z,0.10
2022-12-20T00:58:54.414Z,0.10
2022-12-20T01:01:27.678Z,0.10
2022-12-20T01:03:55.222Z,0.10
2022-12-20T01:06:25.119Z,0.10
2022-12-20T01:08:54.278Z,0.10
2022-12-20T01:11:28.147Z,0.10
2022-12-20T01:13:58.541Z,0.00
2022-12-20T01:16:47.598Z,0.00
2022-12-20T01:19:18.062Z,0.00
2022-12-20T01:21:45.531Z,0.00
2022-12-20T01:24:15.353Z,0.00
2022-12-20T01:26:42.879Z,0.00
2022-12-20T01:29:14.131Z,0.00
2022-12-20T01:31:41.690Z,0.00
2022-12-20T01:34:09.008Z,0.00
2022-12-20T01:36:38.371Z,0.00
2022-12-20T01:39:14.289Z,0.00
2022-12-20T01:41:44.134Z,0.00
2022-12-20T01:44:17.327Z,0.00
2022-12-20T01:46:47.147Z,0.00
2022-12-20T01:49:26.153Z,0.00
2022-12-20T01:52:20.586Z,0.00
2022-12-20T01:55:08.811Z,0.00
2022-12-20T01:57:49.552Z,0.00
2022-12-20T02:00:17.336Z,0.00
2022-12-20T02:02:50.448Z,-0.10
2022-12-20T02:05:22.621Z,-0.10
2022-12-20T02:07:54.307Z,-0.10
2022-12-20T02:10:27.555Z,0.00
2022-12-20T02:13:07.841Z,-0.10
2022-12-20T02:16:03.753Z,0.00
2022-12-20T02:18:51.393Z,0.00
2022-12-20T02:21:39.174Z,0.00
2022-12-20T02:24:12.013Z,0.00
2022-12-20T02:26:51.200Z,0.00
2022-12-20T02:29:40.467Z,0.00
2022-12-20T02:32:20.149Z,0.00
2022-12-20T02:34:47.617Z,0.00
2022-12-20T02:37:14.817Z,0.00
2022-12-20T02:39:43.937Z,-0.10
2022-12-20T02:42:14.430Z,-0.10
2022-12-20T02:45:13.411Z,-0.10
2022-12-20T02:48:09.908Z,-0.10
2022-12-20T02:50:40.618Z,-0.10
2022-12-20T02:53:10.081Z,-0.10
2022-12-20T02:55:47.369Z,-0.10
2022-12-20T02:59:07.555Z,-0.10
2022-12-20T03:01:41.874Z,-0.10
2022-12-20T03:04:09.554Z,-0.10
2022-12-20T03:06:36.663Z,-0.10
2022-12-20T03:09:03.931Z,0.00
2022-12-20T03:11:31.102Z,-0.10
2022-12-20T03:13:58.136Z,0.00
2022-12-20T03:16:28.412Z,0.00
2022-12-20T03:18:55.507Z,0.00
2022-12-20T03:21:22.808Z,-0.10
2022-12-20T03:23:49.854Z,-0.10
2022-12-20T03:26:16.958Z,-0.10
2022-12-20T03:28:44.068Z,-0.10
2022-12-20T03:31:11.232Z,0.00
2022-12-20T03:33:38.319Z,0.00
2022-12-20T03:36:05.671Z,-0.10
2022-12-20T03:38:32.816Z,-0.10
2022-12-20T03:40:59.899Z,-0.10
2022-12-20T03:43:26.978Z,-0.10
2022-12-20T03:45:54.088Z,-0.10
2022-12-20T03:48:21.187Z,-0.10
2022-12-20T03:50:48.366Z,-0.10
2022-12-20T03:53:19.030Z,-0.10
2022-12-20T03:55:46.088Z,-0.10
2022-12-20T03:58:13.130Z,-0.10
2022-12-20T04:00:40.270Z,-0.10
2022-12-20T04:03:07.611Z,-0.10
2022-12-20T04:05:34.814Z,-0.10
2022-12-20T04:08:02.148Z,0.00
2022-12-20T04:10:29.261Z,0.00
2022-12-20T04:12:56.341Z,-0.10
2022-12-20T04:15:23.540Z,-0.10
2022-12-20T04:17:50.621Z,-0.10
2022-12-20T04:20:21.430Z,-0.10
2022-12-20T04:22:51.627Z,-0.10
2022-12-20T04:25:21.342Z,-0.10
2022-12-20T04:27:48.457Z,-0.10
2022-12-20T04:30:15.643Z,-0.10
2022-12-20T04:32:43.291Z,-0.10
2022-12-20T04:35:10.759Z,-0.10
2022-12-20T04:37:38.079Z,-0.10
2022-12-20T04:40:06.326Z,-0.10
2022-12-20T04:42:33.492Z,-0.10
2022-12-20T04:45:00.624Z,-0.10
2022-12-20T04:47:27.665Z,-0.10
2022-12-20T04:49:54.833Z,-0.10
2022-12-20T04:52:47.123Z,-0.10
2022-12-20T04:55:15.160Z,-0.10
2022-12-20T04:57:45.253Z,-0.10
2022-12-20T05:00:15.515Z,-0.10
2022-12-20T05:02:43.021Z,-0.10
2022-12-20T05:05:10.375Z,-0.10
2022-12-20T05:07:37.502Z,-0.10
2022-12-20T05:10:05.602Z,-0.10
2022-12-20T05:12:32.701Z,-0.10
2022-12-20T05:14:59.838Z,-0.10
2022-12-20T05:17:27.032Z,-0.10
2022-12-20T05:19:54.078Z,-0.10
2022-12-20T05:22:39.663Z,0.00
2022-12-20T05:25:25.666Z,-0.10
2022-12-20T05:27:52.759Z,0.00
2022-12-20T05:30:20.230Z,-0.10
2022-12-20T05:32:47.770Z,-0.10
2022-12-20T05:35:15.251Z,0.00
2022-12-20T05:37:42.434Z,0.00
2022-12-20T05:40:10.972Z,-0.10
2022-12-20T05:42:41.234Z,0.00
2022-12-20T05:45:08.742Z,0.00
2022-12-20T05:47:36.007Z,0.00
2022-12-20T05:50:04.933Z,0.00
2022-12-20T05:52:33.219Z,0.00
2022-12-20T05:55:00.524Z,0.00
2022-12-20T05:57:28.633Z,0.00
2022-12-20T05:59:55.684Z,0.00
2022-12-20T06:02:22.963Z,0.00
2022-12-20T06:04:50.347Z,0.00
2022-12-20T06:07:17.452Z,0.00
2022-12-20T06:09:44.531Z,0.00
2022-12-20T06:12:11.607Z,0.00
2022-12-20T06:14:39.093Z,0.10
2022-12-20T06:17:06.177Z,0.10
2022-12-20T06:19:33.670Z,0.10
2022-12-20T06:22:03.699Z,0.10
2022-12-20T06:24:30.822Z,0.10
2022-12-20T06:26:58.339Z,0.10
2022-12-20T06:29:25.559Z,0.10
2022-12-20T06:31:52.747Z,0.10
2022-12-20T06:34:20.595Z,0.00
2022-12-20T06:36:47.733Z,0.00
2022-12-20T06:39:15.390Z,0.10
2022-12-20T06:41:42.529Z,0.00
2022-12-20T06:44:09.691Z,0.10
2022-12-20T06:46:36.823Z,0.10
2022-12-20T06:49:04.032Z,0.10
2022-12-20T06:51:31.199Z,0.00
2022-12-20T06:53:58.371Z,0.10
2022-12-20T06:56:25.438Z,0.10
2022-12-20T06:58:52.514Z,0.10
2022-12-20T07:01:19.700Z,0.10
2022-12-20T07:03:47.076Z,0.10
2022-12-20T07:06:17.330Z,0.10
2022-12-20T07:08:44.646Z,0.10
2022-12-20T07:11:12.140Z,0.10
2022-12-20T07:13:39.249Z,0.10
2022-12-20T07:16:09.119Z,0.10
2022-12-20T07:18:36.271Z,0.10
2022-12-20T07:21:06.201Z,0.10
2022-12-20T07:23:33.540Z,0.00
2022-12-20T07:26:04.078Z,0.00
2022-12-20T07:28:31.435Z,0.10
2022-12-20T07:31:03.089Z,0.10
2022-12-20T07:33:31.359Z,0.10
2022-12-20T07:36:11.383Z,0.00
2022-12-20T07:38:39.154Z,0.00
2022-12-20T07:41:16.695Z,0.00
2022-12-20T07:43:44.006Z,0.10
2022-12-20T07:46:15.067Z,0.00
2022-12-20T07:48:43.034Z,0.10
2022-12-20T07:51:21.786Z,0.10
2022-12-20T07:54:14.788Z,0.10
2022-12-20T07:56:47.391Z,0.10
2022-12-20T07:59:18.746Z,0.10
2022-12-20T08:01:46.658Z,0.10
2022-12-20T08:04:21.139Z,0.10
2022-12-20T08:06:49.443Z,0.10
2022-12-20T08:09:17.081Z,0.10
2022-12-20T08:11:48.314Z,0.10
2022-12-20T08:14:17.382Z,0.10
2022-12-20T08:16:44.913Z,0.10
2022-12-20T08:19:12.812Z,0.20
2022-12-20T08:21:39.888Z,0.10
2022-12-20T08:24:08.329Z,0.10
2022-12-20T08:26:40.297Z,0.20
2022-12-20T08:29:08.704Z,0.20
2022-12-20T08:31:44.456Z,0.20
2022-12-20T08:34:14.802Z,0.20
2022-12-20T08:36:42.073Z,0.20
2022-12-20T08:39:09.255Z,0.20
2022-12-20T08:41:37.582Z,0.20
2022-12-20T08:44:06.127Z,0.20
2022-12-20T08:46:33.643Z,0.20
2022-12-20T08:49:00.793Z,0.20
2022-12-20T08:51:29.315Z,0.30
2022-12-20T08:53:56.747Z,0.20
2022-12-20T08:56:24.319Z,0.20
2022-12-20T08:58:51.693Z,0.20
2022-12-20T09:01:26.889Z,0.30
2022-12-20T09:03:54.445Z,0.30
2022-12-20T09:06:23.072Z,0.30
2022-12-20T09:08:50.410Z,0.30
2022-12-20T09:11:24.206Z,0.20
2022-12-20T09:13:55.211Z,0.20
2022-12-20T09:16:29.018Z,0.20
2022-12-20T09:19:04.676Z,0.20
2022-12-20T09:21:33.976Z,0.20
2022-12-20T09:24:01.149Z,0.30
2022-12-20T09:26:28.414Z,0.30
2022-12-20T09:28:55.652Z,0.30
2022-12-20T09:31:27.260Z,0.30
2022-12-20T09:33:58.079Z,0.30
2022-12-20T09:36:28.119Z,0.30
2022-12-20T09:38:56.436Z,0.30
2022-12-20T09:41:43.194Z,0.30
2022-12-20T09:44:23.079Z,0.30
2022-12-20T09:47:08.195Z,0.30
2022-12-20T09:49:42.116Z,0.30
2022-12-20T09:53:02.120Z,0.30
2022-12-20T09:55:43.810Z,0.30
2022-12-20T09:58:39.425Z,0.20
2022-12-20T10:01:25.732Z,0.20
2022-12-20T10:03:56.330Z,0.30
2022-12-20T10:06:41.524Z,0.30
2022-12-20T10:09:35.278Z,0.30
2022-12-20T10:12:33.175Z,0.30
2022-12-20T10:15:32.249Z,0.40
2022-12-20T10:18:20.923Z,0.40
2022-12-20T10:21:30.179Z,0.30
2022-12-20T10:24:03.214Z,0.30
2022-12-20T10:26:33.147Z,0.30
2022-12-20T10:29:00.262Z,0.30
2022-12-20T10:31:27.827Z,0.30
2022-12-20T10:33:55.810Z,0.30
2022-12-20T10:36:32.931Z,0.30
2022-12-20T10:39:06.932Z,0.30
2022-12-20T10:41:49.968Z,0.30
2022-12-20T10:44:30.062Z,0.30
2022-12-20T10:46:59.834Z,0.40
2022-12-20T10:49:37.184Z,0.40
2022-12-20T10:52:10.117Z,0.40
2022-12-20T10:54:40.417Z,0.40
2022-12-20T10:57:21.450Z,0.40
2022-12-20T11:00:01.960Z,0.40
2022-12-20T11:02:39.511Z,0.40
2022-12-20T11:05:10.783Z,0.40
2022-12-20T11:10:48.024Z,0.40
2022-12-20T11:13:26.668Z,0.50
2022-12-20T11:15:57.835Z,0.50
2022-12-20T11:18:33.912Z,0.50
2022-12-20T11:21:12.679Z,0.50
2022-12-20T11:24:09.523Z,0.50
2022-12-20T11:26:50.302Z,0.50
2022-12-20T11:29:43.361Z,0.50
2022-12-20T11:32:30.103Z,0.50
2022-12-20T11:35:55.819Z,0.50
2022-12-20T11:38:49.093Z,0.40
2022-12-20T11:41:51.916Z,0.50
2022-12-20T11:44:53.911Z,0.50
2022-12-20T11:47:49.253Z,0.40
2022-12-20T11:51:02.030Z,0.40
2022-12-20T11:53:39.144Z,0.40
2022-12-20T11:56:21.114Z,0.40
2022-12-20T11:59:04.407Z,0.50
2022-12-20T12:01:48.666Z,0.40
2022-12-20T12:04:46.431Z,0.40
2022-12-20T12:07:30.094Z,0.50
2022-12-20T12:10:04.572Z,0.40
2022-12-20T12:12:37.730Z,0.40
2022-12-20T12:15:41.999Z,0.40
2022-12-20T12:18:15.180Z,0.50
2022-12-20T12:20:52.627Z,0.50
2022-12-20T12:23:47.253Z,0.50
2022-12-20T12:26:31.191Z,0.50
2022-12-20T12:29:09.095Z,0.50
2022-12-20T12:31:41.263Z,0.50
2022-12-20T12:34:36.174Z,0.50
2022-12-20T12:37:38.884Z,0.50
2022-12-20T12:40:20.569Z,0.50
2022-12-20T12:43:21.715Z,0.40
2022-12-20T12:46:03.229Z,0.40
2022-12-20T12:48:45.689Z,0.40
2022-12-20T12:51:15.567Z,0.40
2022-12-20T12:53:52.521Z,0.40
2022-12-20T12:56:45.835Z,0.40
2022-12-20T12:59:13.590Z,0.40
2022-12-20T13:02:04.215Z,0.40
2022-12-20T13:04:59.585Z,0.40
2022-12-20T13:07:40.171Z,0.40
2022-12-20T13:10:10.045Z,0.40
2022-12-20T13:12:37.140Z,0.40
2022-12-20T13:15:22.250Z,0.40
2022-12-20T13:18:09.589Z,0.40
2022-12-20T13:20:37.947Z,0.40
2022-12-20T13:23:11.897Z,0.40
2022-12-20T13:25:41.706Z,0.40
2022-12-20T13:28:24.082Z,0.40
2022-12-20T13:30:53.982Z,0.40
2022-12-20T13:33:38.886Z,0.40
2022-12-20T13:36:11.750Z,0.40
2022-12-20T13:39:21.412Z,0.40
2022-12-20T13:41:53.713Z,0.40
2022-12-20T13:44:42.718Z,0.40
2022-12-20T13:47:32.614Z,0.40
2022-12-20T13:50:40.731Z,0.40
2022-12-20T13:53:19.144Z,0.50
2022-12-20T13:55:47.042Z,0.50
2022-12-20T13:58:23.916Z,0.50
2022-12-20T14:00:52.557Z,0.40
2022-12-20T14:03:29.844Z,0.40
2022-12-20T14:06:03.627Z,0.40
2022-12-20T14:08:39.364Z,0.40
2022-12-20T14:11:26.802Z,0.40
2022-12-20T14:14:00.903Z,0.40
2022-12-20T14:16:33.565Z,0.50
2022-12-20T14:19:15.346Z,0.40
2022-12-20T14:21:46.061Z,0.40
2022-12-20T14:24:22.561Z,0.40
2022-12-20T14:26:52.827Z,0.40
2022-12-20T14:29:29.609Z,0.40
2022-12-20T14:31:57.320Z,0.40
2022-12-20T14:34:35.376Z,0.40
2022-12-20T14:37:28.606Z,0.40
2022-12-20T14:40:11.038Z,0.40
2022-12-20T14:42:40.394Z,0.40
2022-12-20T14:45:21.131Z,0.40
2022-12-20T14:48:07.470Z,0.40
2022-12-20T14:50:38.229Z,0.40
2022-12-20T14:53:22.182Z,0.40
2022-12-20T14:55:50.039Z,0.40
2022-12-20T14:58:33.634Z,0.40
2022-12-20T15:01:24.812Z,0.40
2022-12-20T15:03:59.813Z,0.40
2022-12-20T15:06:39.629Z,0.40
2022-12-20T15:09:06.883Z,0.30
2022-12-20T15:11:36.802Z,0.30
2022-12-20T15:14:37.673Z,0.30
2022-12-20T15:17:11.762Z,0.30
2022-12-20T15:19:43.040Z,0.30
2022-12-20T15:22:17.795Z,0.30
2022-12-20T15:24:44.911Z,0.30
2022-12-20T15:27:15.418Z,0.30
2022-12-20T15:29:43.386Z,0.30
2022-12-20T15:32:29.744Z,0.40
2022-12-20T15:34:57.084Z,0.40
2022-12-20T15:37:24.193Z,0.40
2022-12-20T15:39:51.257Z,0.50
2022-12-20T15:42:20.362Z,0.40
2022-12-20T15:44:47.714Z,0.40
2022-12-20T15:47:17.155Z,0.40
2022-12-20T15:49:49.868Z,0.30
2022-12-20T15:52:23.372Z,0.30
2022-12-20T15:54:50.941Z,0.30
2022-12-20T15:57:18.644Z,0.30
2022-12-20T15:59:59.696Z,0.30
2022-12-20T16:02:30.815Z,0.30
2022-12-20T16:04:59.059Z,0.30
2022-12-20T16:07:26.563Z,0.30
2022-12-20T16:09:54.240Z,0.30
2022-12-20T16:12:33.517Z,0.30
2022-12-20T16:15:00.726Z,0.30
2022-12-20T16:17:27.890Z,0.30
2022-12-20T16:19:55.628Z,0.30
2022-12-20T16:22:24.996Z,0.30
2022-12-20T16:24:52.519Z,0.30
2022-12-20T16:27:20.445Z,0.30
2022-12-20T16:29:47.782Z,0.30
2022-12-20T16:32:21.820Z,0.30
2022-12-20T16:34:50.961Z,0.30
2022-12-20T16:37:18.617Z,0.30
2022-12-20T16:39:45.836Z,0.30
2022-12-20T16:42:23.384Z,0.30
2022-12-20T16:44:54.550Z,0.30
2022-12-20T16:47:22.542Z,0.30
2022-12-20T16:49:53.439Z,0.30
2022-12-20T16:52:22.849Z,0.30
2022-12-20T16:54:50.879Z,0.30
2022-12-20T16:57:18.180Z,0.30
2022-12-20T16:59:45.333Z,0.30
2022-12-20T17:02:34.836Z,0.30
2022-12-20T17:05:02.419Z,0.30
2022-12-20T17:07:30.806Z,0.30
2022-12-20T17:09:59.077Z,0.30
2022-12-20T17:12:26.160Z,0.30
2022-12-20T17:14:53.572Z,0.40
2022-12-20T17:17:20.672Z,0.40
2022-12-20T17:19:50.936Z,0.40
2022-12-20T17:25:03.444Z,0.30
2022-12-20T17:27:30.604Z,0.30
2022-12-20T17:29:57.706Z,0.40
2022-12-20T17:32:26.221Z,0.30
2022-12-20T17:34:54.452Z,0.40
2022-12-20T17:37:21.822Z,0.40
2022-12-20T17:39:49.304Z,0.40
2022-12-20T17:42:17.234Z,0.40
2022-12-20T17:44:46.402Z,0.40
2022-12-20T17:47:13.890Z,0.50
2022-12-20T17:49:41.287Z,0.50
2022-12-20T17:52:14.587Z,0.40
2022-12-20T17:54:41.907Z,0.40
2022-12-20T17:57:16.837Z,0.40
2022-12-20T17:59:44.693Z,0.40
2022-12-20T18:02:30.170Z,0.40
2022-12-20T18:04:57.775Z,0.40
2022-12-20T18:07:25.450Z,0.40
2022-12-20T18:09:53.005Z,0.40
2022-12-20T18:12:20.425Z,0.40
2022-12-20T18:14:50.037Z,0.40
2022-12-20T18:17:17.654Z,0.30
2022-12-20T18:19:45.644Z,0.30
2022-12-20T18:22:13.892Z,0.30
2022-12-20T18:24:41.367Z,0.40
2022-12-20T18:27:08.657Z,0.40
2022-12-20T18:29:35.772Z,0.40
2022-12-20T18:32:03.283Z,0.40
2022-12-20T18:34:30.559Z,0.30
2022-12-20T18:36:58.290Z,0.30
2022-12-20T18:39:25.920Z,0.30
2022-12-20T18:41:53.587Z,0.30
2022-12-20T18:44:20.913Z,0.40
2022-12-20T18:46:48.596Z,0.30
2022-12-20T18:49:15.956Z,0.30
2022-12-20T18:51:43.933Z,0.30
2022-12-20T18:54:14.811Z,0.40
2022-12-20T18:56:42.202Z,0.40
2022-12-20T18:59:12.640Z,0.40
2022-12-20T19:01:42.151Z,0.40
2022-12-20T19:04:10.658Z,0.40
2022-12-20T19:06:38.873Z,0.40
2022-12-20T19:09:15.612Z,0.40
2022-12-20T19:11:43.767Z,0.40
2022-12-20T19:14:13.235Z,0.40
2022-12-20T19:16:40.560Z,0.40
2022-12-20T19:19:09.010Z,0.40
2022-12-20T19:21:40.047Z,0.40
2022-12-20T19:24:08.191Z,0.40
2022-12-20T19:26:37.887Z,0.40
2022-12-20T19:29:06.630Z,0.40
2022-12-20T19:31:37.501Z,0.40
2022-12-20T19:34:12.932Z,0.40
2022-12-20T19:36:46.677Z,0.40
2022-12-20T19:39:20.872Z,0.40
2022-12-20T19:42:21.492Z,0.40
2022-12-20T19:44:37.595Z,0.40
2022-12-20T19:47:06.341Z,0.40
2022-12-20T19:49:36.404Z,0.40
2022-12-20T19:52:06.541Z,0.40
2022-12-20T19:54:35.477Z,0.40
2022-12-20T19:57:02.982Z,0.40
2022-12-20T19:59:36.777Z,0.40
2022-12-20T20:02:04.752Z,0.40
2022-12-20T20:04:33.389Z,0.40
2022-12-20T20:07:00.975Z,0.40
2022-12-20T20:09:28.538Z,0.40
2022-12-20T20:11:55.811Z,0.40
2022-12-20T20:14:23.328Z,0.40
2022-12-20T20:16:50.686Z,0.40
2022-12-20T20:19:18.516Z,0.40
2022-12-20T20:21:46.379Z,0.40
2022-12-20T20:24:13.666Z,0.40
2022-12-20T20:26:41.345Z,0.40
2022-12-20T20:29:10.573Z,0.40
2022-12-20T20:31:38.306Z,0.40
2022-12-20T20:34:05.582Z,0.40
2022-12-20T20:36:32.686Z,0.40
2022-12-20T20:39:00.190Z,0.40
2022-12-20T20:41:27.724Z,0.40
2022-12-20T20:43:55.093Z,0.40
2022-12-20T20:46:23.171Z,0.40
2022-12-20T20:48:50.577Z,0.40
2022-12-20T20:51:18.091Z,0.40
2022-12-20T20:53:45.531Z,0.40
2022-12-20T20:56:12.943Z,0.40
2022-12-20T20:58:40.179Z,0.40
2022-12-20T21:01:09.128Z,0.40
2022-12-20T21:03:37.333Z,0.40
2022-12-20T21:06:39.093Z,0.40
2022-12-20T21:08:54.690Z,0.40
2022-12-20T21:11:22.168Z,0.50
2022-12-20T21:13:49.569Z,0.50
2022-12-20T21:16:22.381Z,0.50
2022-12-20T21:18:55.318Z,0.50
2022-12-20T21:21:24.557Z,0.50
2022-12-20T21:23:52.915Z,0.50
2022-12-20T21:26:23.159Z,0.50
2022-12-20T21:28:50.301Z,0.50
2022-12-20T21:31:19.509Z,0.50
2022-12-20T21:33:47.217Z,0.50
2022-12-20T21:36:18.458Z,0.50
2022-12-20T21:39:04.189Z,0.50
2022-12-20T21:41:31.729Z,0.50
2022-12-20T21:44:00.098Z,0.40
2022-12-20T21:46:30.191Z,0.50
2022-12-20T21:48:58.738Z,0.50
2022-12-20T21:51:27.505Z,0.50
2022-12-20T21:54:00.297Z,0.50
2022-12-20T21:56:30.141Z,0.50
2022-12-20T21:58:58.210Z,0.50
2022-12-20T22:01:28.310Z,0.50
2022-12-20T22:04:03.465Z,0.50
2022-12-20T22:06:31.614Z,0.50
2022-12-20T22:09:06.923Z,0.50
2022-12-20T22:11:35.181Z,0.50
2022-12-20T22:14:02.637Z,0.50
2022-12-20T22:16:34.934Z,0.50
2022-12-20T22:19:03.568Z,0.50
2022-12-20T22:21:35.128Z,0.50
2022-12-20T22:24:03.395Z,0.50
2022-12-20T22:26:33.215Z,0.50
2022-12-20T22:29:04.955Z,0.50
2022-12-20T22:31:32.759Z,0.50
2022-12-20T22:34:00.145Z,0.50
2022-12-20T22:36:27.797Z,0.50
2022-12-20T22:38:57.364Z,0.50
2022-12-20T22:41:30.743Z,0.50
2022-12-20T22:43:59.730Z,0.50
2022-12-20T22:49:18.428Z,0.50
2022-12-20T22:51:53.700Z,0.50
2022-12-20T22:54:30.053Z,0.50
2022-12-20T22:56:57.115Z,0.50
2022-12-20T22:59:27.459Z,0.60
2022-12-20T23:01:54.715Z,0.50
2022-12-20T23:04:21.957Z,0.50
2022-12-20T23:06:52.655Z,0.50
2022-12-20T23:09:19.724Z,0.50
2022-12-20T23:12:05.576Z,0.50
2022-12-20T23:15:08.311Z,0.50
2022-12-20T23:17:35.391Z,0.50
2022-12-20T23:20:26.061Z,0.50
2022-12-20T23:22:53.083Z,0.50
2022-12-20T23:25:21.319Z,0.50
2022-12-20T23:27:50.120Z,0.50
2022-12-20T23:30:21.373Z,0.50
2022-12-20T23:32:49.113Z,0.50
2022-12-20T23:35:19.301Z,0.50
2022-12-20T23:37:46.840Z,0.50
2022-12-20T23:40:16.391Z,0.50
2022-12-20T23:42:44.399Z,0.50
2022-12-20T23:45:11.768Z,0.50
2022-12-20T23:47:39.025Z,0.50
2022-12-20T23:50:07.001Z,0.50
2022-12-20T23:52:34.066Z,0.50
2022-12-20T23:55:01.274Z,0.50
2022-12-20T23:57:31.759Z,0.60
2022-12-20T23:59:59.012Z,0.50
